createdAt,value
2017-09-05T00:01:44.336Z,86.13
2017-09-05T00:04:11.843Z,87.11
2017-09-05T00:06:39.350Z,86.63
2017-09-05T00:09:12.486Z,86.08
2017-09-05T00:11:42.579Z,87.06
2017-09-05T00:17:30.887Z,86.01
2017-09-05T00:20:00.839Z,85.35
2017-09-05T00:22:47.239Z,85.54
2017-09-05T00:25:14.759Z,86.20
2017-09-05T00:27:42.260Z,85.93
2017-09-05T00:30:09.763Z,86.07
2017-09-05T00:32:37.260Z,85.69
2017-09-05T00:35:04.769Z,85.40
2017-09-05T00:37:32.302Z,84.75
2017-09-05T00:39:59.804Z,84.99
2017-09-05T00:42:27.348Z,86.08
2017-09-05T00:44:54.876Z,86.64
2017-09-05T00:47:22.392Z,86.21
2017-09-05T00:49:49.944Z,86.75
2017-09-05T00:52:17.460Z,87.62
2017-09-05T00:54:44.967Z,89.01
2017-09-05T00:57:12.467Z,89.45
2017-09-05T00:59:39.996Z,88.58
2017-09-05T01:02:07.496Z,88.80
2017-09-05T01:04:35.002Z,89.04
2017-09-05T01:07:02.506Z,88.28
2017-09-05T01:09:30.034Z,88.89
2017-09-05T01:11:57.554Z,89.97
2017-09-05T01:14:25.080Z,91.06
2017-09-05T01:16:52.589Z,92.36
2017-09-05T01:19:20.096Z,91.23
2017-09-05T01:21:47.605Z,91.71
2017-09-05T01:24:15.126Z,92.65
2017-09-05T01:26:42.646Z,92.59
2017-09-05T01:29:10.196Z,93.23
2017-09-05T01:31:37.715Z,94.06
2017-09-05T01:34:05.247Z,93.73
2017-09-05T01:36:32.768Z,94.09
2017-09-05T01:39:00.287Z,94.68
2017-09-05T01:41:27.808Z,95.15
2017-09-05T01:43:55.312Z,94.81
2017-09-05T01:46:22.834Z,94.38
2017-09-05T01:48:50.370Z,94.61
2017-09-05T01:51:17.933Z,95.45
2017-09-05T01:53:45.459Z,94.19
2017-09-05T01:56:12.987Z,95.24
2017-09-05T01:58:40.521Z,95.52
2017-09-05T02:01:08.027Z,95.52
2017-09-05T02:03:35.542Z,95.54
2017-09-05T02:06:03.047Z,94.95
2017-09-05T02:08:30.547Z,95.26
2017-09-05T02:10:58.066Z,96.04
2017-09-05T02:13:25.575Z,96.77
2017-09-05T02:15:53.097Z,97.74
2017-09-05T02:18:20.607Z,97.48
2017-09-05T02:20:48.114Z,95.89
2017-09-05T02:23:15.631Z,95.38
2017-09-05T02:25:43.147Z,95.34
2017-09-05T02:28:10.670Z,94.39
2017-09-05T02:30:38.173Z,93.99
2017-09-05T02:33:05.672Z,94.65
2017-09-05T02:35:33.183Z,93.85
2017-09-05T02:38:00.699Z,93.39
2017-09-05T02:40:28.222Z,94.57
2017-09-05T02:42:55.744Z,94.11
2017-09-05T02:45:23.313Z,93.69
2017-09-05T02:47:50.827Z,93.97
2017-09-05T02:50:18.339Z,95.07
2017-09-05T02:52:46.002Z,93.04
2017-09-05T02:55:13.525Z,94.26
2017-09-05T02:57:41.052Z,96.98
2017-09-05T03:00:08.558Z,97.01
2017-09-05T03:02:36.082Z,96.09
2017-09-05T03:05:03.643Z,95.33
2017-09-05T03:07:31.163Z,94.46
2017-09-05T03:09:58.675Z,94.51
2017-09-05T03:12:26.196Z,93.62
2017-09-05T03:14:53.704Z,94.65
2017-09-05T03:17:21.219Z,96.89
2017-09-05T03:19:48.753Z,96.60
2017-09-05T03:22:16.250Z,96.17
2017-09-05T03:24:43.754Z,96.22
2017-09-05T03:27:11.276Z,98.10
2017-09-05T03:29:38.782Z,99.30
2017-09-05T03:32:06.297Z,99.33
2017-09-05T03:34:33.902Z,99.31
2017-09-05T03:37:01.408Z,99.26
2017-09-05T03:39:28.925Z,99.42
2017-09-05T03:41:56.436Z,98.99
2017-09-05T03:44:23.939Z,99.17
2017-09-05T03:46:51.462Z,99.83
2017-09-05T03:49:18.967Z,99.87
2017-09-05T03:51:46.507Z,100.00
2017-09-05T03:54:14.018Z,99.69
2017-09-05T03:56:41.515Z,99.37
2017-09-05T03:59:09.051Z,99.53
2017-09-05T04:01:36.559Z,99.85
2017-09-05T04:04:04.064Z,99.55
2017-09-05T04:06:31.602Z,99.45
2017-09-05T04:08:59.117Z,99.78
2017-09-05T04:11:26.614Z,99.60
2017-09-05T04:13:54.129Z,99.30
2017-09-05T04:16:21.633Z,98.68
2017-09-05T04:18:49.141Z,98.57
2017-09-05T04:21:16.645Z,98.80
2017-09-05T04:23:44.170Z,99.68
2017-09-05T04:26:11.851Z,99.33
2017-09-05T04:28:39.410Z,97.53
2017-09-05T04:31:06.919Z,98.12
2017-09-05T04:33:34.451Z,97.79
2017-09-05T04:36:01.950Z,97.47
2017-09-05T04:38:29.475Z,96.82
2017-09-05T04:40:56.989Z,96.48
2017-09-05T04:43:24.661Z,97.34
2017-09-05T04:45:52.164Z,98.73
2017-09-05T04:48:19.706Z,98.79
2017-09-05T04:50:47.215Z,99.35
2017-09-05T04:53:14.723Z,98.20
2017-09-05T04:55:42.265Z,99.32
2017-09-05T04:58:09.760Z,99.37
2017-09-05T05:00:37.283Z,99.51
2017-09-05T05:03:04.812Z,99.86
2017-09-05T05:05:32.316Z,99.60
2017-09-05T05:07:59.853Z,97.97
2017-09-05T05:10:27.397Z,98.20
2017-09-05T05:12:54.908Z,97.68
2017-09-05T05:15:22.418Z,98.18
2017-09-05T05:17:49.939Z,98.18
2017-09-05T05:20:17.456Z,98.83
2017-09-05T05:22:44.962Z,98.60
2017-09-05T05:25:12.484Z,98.19
2017-09-05T05:27:39.991Z,97.15
2017-09-05T05:30:07.505Z,97.02
2017-09-05T05:32:35.012Z,97.48
2017-09-05T05:35:02.531Z,97.04
2017-09-05T05:37:30.046Z,97.67
2017-09-05T05:39:57.568Z,97.31
2017-09-05T05:42:25.103Z,96.50
2017-09-05T05:44:52.629Z,95.80
2017-09-05T05:47:20.140Z,95.62
2017-09-05T05:49:47.723Z,94.85
2017-09-05T05:52:15.284Z,93.78
2017-09-05T05:54:42.808Z,93.26
2017-09-05T05:57:10.326Z,91.63
2017-09-05T05:59:37.847Z,91.54
2017-09-05T06:02:05.356Z,93.80
2017-09-05T06:04:32.866Z,95.28
2017-09-05T06:07:00.375Z,93.71
2017-09-05T06:09:27.906Z,92.38
2017-09-05T06:11:55.402Z,94.09
2017-09-05T06:14:22.903Z,93.24
2017-09-05T06:16:50.411Z,92.77
2017-09-05T06:19:17.921Z,92.52
2017-09-05T06:21:45.459Z,91.68
2017-09-05T06:24:12.966Z,89.06
2017-09-05T06:26:40.504Z,87.91
2017-09-05T06:29:08.020Z,84.98
2017-09-05T06:31:35.539Z,86.40
2017-09-05T06:34:03.070Z,86.76
2017-09-05T06:36:30.593Z,84.18
2017-09-05T06:38:58.135Z,82.98
2017-09-05T06:41:25.652Z,82.78
2017-09-05T06:43:53.156Z,80.48
2017-09-05T06:46:20.700Z,81.83
2017-09-05T06:48:48.246Z,78.21
2017-09-05T06:51:15.769Z,77.85
2017-09-05T06:53:43.287Z,78.48
2017-09-05T06:56:10.807Z,77.68
2017-09-05T06:58:38.332Z,77.71
2017-09-05T07:01:05.855Z,75.88
2017-09-05T07:03:33.402Z,75.73
2017-09-05T07:06:00.926Z,72.10
2017-09-05T07:08:28.443Z,72.60
2017-09-05T07:10:55.998Z,71.28
2017-09-05T07:13:23.518Z,68.37
2017-09-05T07:15:51.038Z,66.10
2017-09-05T07:18:18.543Z,67.49
2017-09-05T07:20:46.073Z,69.94
2017-09-05T07:23:13.591Z,64.56
2017-09-05T07:25:41.096Z,58.56
2017-09-05T07:28:08.615Z,52.36
2017-09-05T07:30:36.159Z,50.11
2017-09-05T07:33:03.708Z,49.76
2017-09-05T07:35:31.247Z,62.41
2017-09-05T07:37:58.770Z,58.30
2017-09-05T07:40:26.292Z,57.92
2017-09-05T07:42:53.819Z,57.25
2017-09-05T07:45:21.348Z,58.06
2017-09-05T07:47:48.867Z,62.78
2017-09-05T07:50:16.391Z,61.06
2017-09-05T07:52:43.978Z,58.03
2017-09-05T07:55:11.483Z,51.79
2017-09-05T07:57:39.158Z,50.16
2017-09-05T08:00:06.663Z,51.63
2017-09-05T08:02:34.357Z,56.07
2017-09-05T08:05:01.898Z,56.50
2017-09-05T08:07:29.410Z,47.79
2017-09-05T08:09:56.922Z,41.27
2017-09-05T08:12:24.458Z,46.27
2017-09-05T08:14:52.090Z,61.63
2017-09-05T08:17:19.665Z,64.12
2017-09-05T08:19:47.183Z,61.93
2017-09-05T08:22:14.732Z,61.13
2017-09-05T08:24:42.237Z,51.81
2017-09-05T08:27:09.735Z,51.63
2017-09-05T08:29:37.410Z,49.63
2017-09-05T08:32:04.942Z,54.41
2017-09-05T08:34:32.448Z,50.83
2017-09-05T08:36:59.962Z,51.42
2017-09-05T08:39:27.470Z,49.93
2017-09-05T08:41:55.019Z,42.06
2017-09-05T08:44:22.528Z,39.89
2017-09-05T08:46:50.207Z,45.55
2017-09-05T08:49:17.767Z,46.09
2017-09-05T08:51:45.360Z,39.33
2017-09-05T08:54:12.864Z,40.44
2017-09-05T08:56:40.696Z,35.53
2017-09-05T08:59:08.238Z,30.65
2017-09-05T09:01:35.803Z,32.54
2017-09-05T09:04:03.924Z,38.59
2017-09-05T09:06:31.441Z,43.39
2017-09-05T09:08:58.954Z,40.07
2017-09-05T09:11:26.467Z,38.87
2017-09-05T09:13:54.000Z,44.17
2017-09-05T09:16:21.525Z,42.67
2017-09-05T09:18:49.032Z,40.97
2017-09-05T09:21:16.572Z,39.57
2017-09-05T09:23:44.184Z,41.85
2017-09-05T09:26:11.724Z,37.02
2017-09-05T09:28:39.245Z,42.77
2017-09-05T09:31:06.763Z,33.52
2017-09-05T09:33:34.273Z,32.83
2017-09-05T09:36:01.784Z,32.09
2017-09-05T09:38:29.338Z,30.79
2017-09-05T09:40:56.934Z,35.11
2017-09-05T09:43:24.486Z,28.45
2017-09-05T09:45:52.002Z,32.60
2017-09-05T09:48:19.516Z,27.84
2017-09-05T09:50:47.074Z,26.01
2017-09-05T09:53:14.573Z,22.17
2017-09-05T09:55:42.080Z,22.04
2017-09-05T09:58:09.607Z,21.50
2017-09-05T10:00:37.192Z,23.38
2017-09-05T10:03:05.062Z,23.41
2017-09-05T10:05:32.615Z,23.43
2017-09-05T10:08:00.133Z,20.39
2017-09-05T10:10:27.663Z,24.41
2017-09-05T10:12:55.221Z,22.93
2017-09-05T10:15:22.749Z,21.03
2017-09-05T10:17:50.270Z,21.80
2017-09-05T10:20:17.801Z,20.58
2017-09-05T10:22:45.325Z,25.60
2017-09-05T10:25:12.839Z,24.96
2017-09-05T10:27:40.384Z,23.08
2017-09-05T10:30:07.926Z,21.02
2017-09-05T10:32:35.442Z,23.07
2017-09-05T10:35:02.965Z,18.83
2017-09-05T10:37:30.496Z,17.55
2017-09-05T10:39:58.039Z,18.61
2017-09-05T10:42:25.584Z,18.12
2017-09-05T10:44:53.105Z,20.58
2017-09-05T10:47:20.608Z,22.47
2017-09-05T10:49:48.106Z,21.54
2017-09-05T10:52:15.613Z,22.07
2017-09-05T10:54:43.146Z,24.46
2017-09-05T10:57:10.713Z,27.10
2017-09-05T10:59:38.249Z,23.13
2017-09-05T11:02:06.011Z,27.91
2017-09-05T11:04:33.539Z,21.04
2017-09-05T11:07:01.043Z,23.66
2017-09-05T11:09:28.548Z,23.18
2017-09-05T11:11:56.065Z,27.08
2017-09-05T11:14:23.747Z,22.32
2017-09-05T11:16:51.270Z,20.43
2017-09-05T11:19:18.867Z,22.56
2017-09-05T11:21:46.628Z,16.26
2017-09-05T11:24:14.145Z,25.37
2017-09-05T11:26:41.676Z,22.97
2017-09-05T11:29:09.287Z,19.77
2017-09-05T11:31:36.820Z,20.33
2017-09-05T11:34:04.356Z,21.33
2017-09-05T11:36:31.871Z,18.40
2017-09-05T11:38:59.387Z,24.60
2017-09-05T11:41:26.941Z,25.26
2017-09-05T11:43:54.444Z,23.93
2017-09-05T11:46:21.976Z,30.02
2017-09-05T11:48:49.506Z,27.69
2017-09-05T11:51:17.041Z,24.32
2017-09-05T11:53:44.565Z,26.62
2017-09-05T11:56:12.114Z,27.07
2017-09-05T11:58:39.616Z,28.77
2017-09-05T12:01:07.133Z,29.39
2017-09-05T12:03:34.644Z,28.71
2017-09-05T12:06:02.180Z,27.37
2017-09-05T12:08:29.712Z,28.60
2017-09-05T12:10:57.231Z,36.59
2017-09-05T12:13:24.760Z,34.19
2017-09-05T12:15:52.279Z,33.14
2017-09-05T12:18:19.830Z,34.33
2017-09-05T12:20:47.357Z,34.89
2017-09-05T12:23:14.883Z,38.40
2017-09-05T12:25:42.395Z,37.59
2017-09-05T12:28:10.031Z,38.01
2017-09-05T12:30:37.553Z,38.56
2017-09-05T12:33:05.092Z,40.13
2017-09-05T12:35:32.608Z,39.82
2017-09-05T12:38:00.173Z,39.73
2017-09-05T12:40:27.676Z,42.23
2017-09-05T12:42:55.218Z,43.67
2017-09-05T12:45:22.734Z,43.21
2017-09-05T12:47:50.243Z,41.87
2017-09-05T12:50:17.795Z,40.22
2017-09-05T12:52:45.315Z,29.51
2017-09-05T12:55:12.827Z,28.84
2017-09-05T12:57:40.328Z,28.33
2017-09-05T13:00:08.059Z,29.54
2017-09-05T13:02:35.592Z,32.90
2017-09-05T13:05:03.110Z,37.91
2017-09-05T13:07:30.627Z,40.20
2017-09-05T13:09:58.165Z,41.76
2017-09-05T13:12:25.694Z,40.09
2017-09-05T13:14:53.197Z,39.39
2017-09-05T13:17:20.724Z,38.34
2017-09-05T13:19:48.239Z,39.00
2017-09-05T13:22:15.748Z,38.04
2017-09-05T13:24:43.446Z,40.12
2017-09-05T13:27:10.959Z,50.78
2017-09-05T13:29:38.665Z,52.46
2017-09-05T13:32:06.328Z,53.09
2017-09-05T13:34:33.855Z,47.16
2017-09-05T13:37:01.502Z,51.18
2017-09-05T13:39:29.023Z,53.55
2017-09-05T13:41:56.541Z,60.79
2017-09-05T13:44:24.077Z,62.88
2017-09-05T13:46:51.619Z,62.25
2017-09-05T13:49:20.863Z,63.82
2017-09-05T13:51:48.632Z,62.45
2017-09-05T13:54:16.494Z,62.16
2017-09-05T13:56:44.116Z,59.24
2017-09-05T13:59:11.636Z,56.33
2017-09-05T14:01:39.261Z,50.01
2017-09-05T14:04:06.788Z,45.45
2017-09-05T14:06:34.316Z,42.71
2017-09-05T14:09:01.881Z,36.64
2017-09-05T14:11:29.423Z,35.44
2017-09-05T14:13:56.968Z,35.72
2017-09-05T14:16:24.484Z,38.11
2017-09-05T14:18:52.012Z,36.42
2017-09-05T14:21:19.538Z,41.13
2017-09-05T14:23:47.061Z,43.04
2017-09-05T14:26:14.585Z,41.85
2017-09-05T14:28:42.108Z,43.90
2017-09-05T14:31:09.632Z,43.81
2017-09-05T14:33:37.152Z,44.67
2017-09-05T14:36:04.655Z,44.70
2017-09-05T14:38:32.169Z,43.84
2017-09-05T14:40:59.947Z,44.32
2017-09-05T14:43:27.669Z,44.02
2017-09-05T14:45:55.182Z,45.60
2017-09-05T14:48:22.684Z,44.38
2017-09-05T14:50:50.226Z,45.34
2017-09-05T14:53:17.810Z,46.72
2017-09-05T14:55:45.350Z,44.20
2017-09-05T14:58:12.913Z,42.88
2017-09-05T15:00:40.468Z,49.71
2017-09-05T15:03:08.002Z,48.78
2017-09-05T15:05:35.530Z,52.05
2017-09-05T15:08:03.351Z,50.18
2017-09-05T15:10:30.881Z,52.32
2017-09-05T15:12:58.469Z,51.88
2017-09-05T15:15:26.036Z,51.01
2017-09-05T15:17:53.580Z,51.51
2017-09-05T15:20:21.209Z,48.01
2017-09-05T15:22:48.745Z,55.07
2017-09-05T15:25:16.274Z,53.04
2017-09-05T15:27:43.793Z,59.16
2017-09-05T15:30:11.499Z,59.68
2017-09-05T15:32:39.165Z,58.44
2017-09-05T15:35:06.695Z,63.83
2017-09-05T15:37:34.245Z,55.51
2017-09-05T15:40:01.808Z,50.37
2017-09-05T15:42:29.331Z,49.75
2017-09-05T15:44:56.864Z,50.26
2017-09-05T15:47:24.415Z,50.93
2017-09-05T15:49:51.920Z,50.75
2017-09-05T15:52:19.450Z,50.02
2017-09-05T15:54:46.965Z,50.47
2017-09-05T15:57:14.505Z,50.75
2017-09-05T15:59:42.019Z,51.21
2017-09-05T16:02:09.524Z,51.65
2017-09-05T16:04:37.067Z,52.40
2017-09-05T16:07:04.573Z,52.43
2017-09-05T16:09:32.187Z,54.84
2017-09-05T16:11:59.771Z,54.96
2017-09-05T16:14:27.292Z,56.34
2017-09-05T16:16:54.811Z,59.81
2017-09-05T16:19:22.311Z,63.96
2017-09-05T16:21:49.852Z,64.33
2017-09-05T16:24:17.363Z,64.67
2017-09-05T16:26:44.878Z,66.88
2017-09-05T16:29:12.406Z,67.98
2017-09-05T16:31:39.926Z,69.55
2017-09-05T16:34:07.459Z,70.78
2017-09-05T16:36:35.020Z,70.03
2017-09-05T16:39:02.539Z,68.95
2017-09-05T16:41:30.062Z,67.75
2017-09-05T16:43:57.708Z,69.50
2017-09-05T16:46:25.340Z,68.91
2017-09-05T16:48:52.946Z,68.51
2017-09-05T16:51:20.459Z,65.57
2017-09-05T16:53:47.972Z,67.59
2017-09-05T16:56:15.523Z,67.40
2017-09-05T16:58:43.110Z,69.81
2017-09-05T17:01:10.648Z,73.45
2017-09-05T17:03:38.189Z,72.04
2017-09-05T17:06:05.745Z,69.99
2017-09-05T17:08:33.271Z,67.19
2017-09-05T17:11:00.772Z,68.10
2017-09-05T17:13:28.279Z,66.76
2017-09-05T17:15:55.808Z,69.39
2017-09-05T17:18:23.354Z,70.80
2017-09-05T17:20:50.922Z,71.79
2017-09-05T17:23:18.446Z,71.07
2017-09-05T17:25:45.984Z,73.38
2017-09-05T17:28:13.504Z,73.48
2017-09-05T17:30:41.123Z,75.57
2017-09-05T17:33:08.656Z,75.83
2017-09-05T17:35:36.222Z,76.61
2017-09-05T17:38:03.795Z,76.68
2017-09-05T17:40:31.354Z,77.31
2017-09-05T17:42:58.926Z,74.05
2017-09-05T17:45:26.460Z,74.73
2017-09-05T17:47:53.968Z,76.58
2017-09-05T17:50:21.484Z,75.89
2017-09-05T17:52:49.005Z,78.35
2017-09-05T17:55:16.520Z,76.80
2017-09-05T17:57:44.044Z,79.79
2017-09-05T18:00:11.568Z,79.45
2017-09-05T18:02:39.083Z,79.92
2017-09-05T18:05:06.669Z,79.33
2017-09-05T18:07:34.193Z,80.47
2017-09-05T18:10:01.748Z,82.37
2017-09-05T18:12:29.264Z,82.33
2017-09-05T18:14:56.787Z,82.37
2017-09-05T18:17:24.302Z,82.36
2017-09-05T18:19:51.820Z,81.19
2017-09-05T18:22:19.344Z,81.63
2017-09-05T18:24:46.868Z,81.83
2017-09-05T18:27:14.395Z,81.54
2017-09-05T18:29:41.943Z,82.54
2017-09-05T18:32:09.479Z,82.36
2017-09-05T18:34:36.986Z,81.83
2017-09-05T18:37:04.490Z,82.32
2017-09-05T18:39:32.023Z,83.92
2017-09-05T18:41:59.552Z,85.08
2017-09-05T18:44:27.077Z,85.50
2017-09-05T18:46:54.605Z,85.21
2017-09-05T18:49:22.137Z,85.11
2017-09-05T18:51:49.681Z,84.64
2017-09-05T18:54:17.244Z,84.40
2017-09-05T18:56:44.831Z,85.21
2017-09-05T18:59:12.566Z,84.74
2017-09-05T19:01:40.102Z,85.69
2017-09-05T19:04:07.682Z,85.50
2017-09-05T19:06:35.238Z,85.55
2017-09-05T19:09:02.853Z,85.03
2017-09-05T19:11:30.404Z,84.28
2017-09-05T19:13:57.985Z,84.77
2017-09-05T19:16:25.529Z,85.10
2017-09-05T19:18:53.038Z,85.47
2017-09-05T19:21:21.042Z,86.32
2017-09-05T19:23:48.551Z,86.65
2017-09-05T19:26:16.103Z,86.72
2017-09-05T19:28:43.648Z,86.12
2017-09-05T19:31:11.202Z,86.11
2017-09-05T19:33:38.820Z,85.90
2017-09-05T19:36:06.356Z,84.24
2017-09-05T19:38:33.863Z,83.17
2017-09-05T19:41:01.405Z,82.75
2017-09-05T19:43:28.953Z,84.69
2017-09-05T19:45:56.537Z,85.71
2017-09-05T19:48:24.066Z,88.04
2017-09-05T19:50:51.576Z,86.65
2017-09-05T19:53:19.114Z,85.44
2017-09-05T19:55:46.657Z,86.17
2017-09-05T19:58:14.215Z,83.79
2017-09-05T20:00:41.767Z,85.30
2017-09-05T20:03:09.329Z,85.51
2017-09-05T20:05:36.844Z,84.16
2017-09-05T20:08:04.381Z,86.56
2017-09-05T20:10:31.933Z,86.58
2017-09-05T20:12:59.448Z,86.76
2017-09-05T20:15:26.993Z,86.07
2017-09-05T20:17:54.515Z,88.04
2017-09-05T20:20:22.052Z,89.01
2017-09-05T20:22:49.607Z,89.83
2017-09-05T20:25:17.188Z,90.90
2017-09-05T20:27:44.712Z,91.49
2017-09-05T20:30:12.277Z,91.64
2017-09-05T20:32:39.785Z,90.51
2017-09-05T20:35:07.301Z,90.55
2017-09-05T20:37:34.820Z,91.64
2017-09-05T20:40:02.363Z,92.25
2017-09-05T20:42:29.928Z,91.93
2017-09-05T20:44:57.567Z,91.89
2017-09-05T20:47:25.101Z,91.10
2017-09-05T20:49:52.602Z,92.13
2017-09-05T20:52:20.125Z,91.06
2017-09-05T20:54:47.671Z,91.10
2017-09-05T20:57:15.176Z,89.77
2017-09-05T20:59:42.749Z,91.15
2017-09-05T21:02:10.278Z,91.61
2017-09-05T21:04:37.915Z,92.80
2017-09-05T21:07:05.450Z,91.44
2017-09-05T21:09:32.985Z,91.84
2017-09-05T21:12:01.490Z,90.95
2017-09-05T21:14:29.040Z,90.21
2017-09-05T21:16:56.686Z,90.75
2017-09-05T21:19:24.197Z,92.07
2017-09-05T21:21:51.703Z,92.45
2017-09-05T21:24:19.225Z,92.70
2017-09-05T21:26:46.766Z,91.89
2017-09-05T21:29:14.276Z,91.50
2017-09-05T21:31:41.802Z,91.66
2017-09-05T21:34:09.337Z,92.60
2017-09-05T21:36:36.996Z,92.85
2017-09-05T21:39:04.505Z,90.72
2017-09-05T21:41:32.066Z,90.75
2017-09-05T21:43:59.590Z,91.61
2017-09-05T21:46:27.107Z,91.85
2017-09-05T21:48:54.712Z,92.71
2017-09-05T21:51:22.252Z,93.38
2017-09-05T21:53:49.772Z,92.07
2017-09-05T21:56:17.435Z,92.21
2017-09-05T21:58:44.947Z,92.09
2017-09-05T22:01:12.474Z,91.82
2017-09-05T22:03:40.023Z,91.69
2017-09-05T22:06:07.585Z,91.25
2017-09-05T22:08:35.156Z,91.79
2017-09-05T22:11:02.688Z,91.86
2017-09-05T22:13:30.212Z,91.84
2017-09-05T22:15:57.733Z,91.77
2017-09-05T22:18:30.935Z,92.24
2017-09-05T22:21:04.013Z,93.19
2017-09-05T22:23:31.519Z,93.52
2017-09-05T22:26:04.602Z,92.20
2017-09-05T22:28:37.745Z,91.11
2017-09-05T22:31:05.267Z,91.11
2017-09-05T22:33:32.912Z,91.99
2017-09-05T22:36:00.449Z,92.82
2017-09-05T22:38:27.959Z,92.96
2017-09-05T22:40:55.543Z,92.83
2017-09-05T22:43:24.114Z,92.84
2017-09-05T22:45:51.626Z,93.10
2017-09-05T22:48:19.130Z,92.72
2017-09-05T22:50:46.637Z,90.88
2017-09-05T22:53:14.180Z,91.35
2017-09-05T22:55:41.703Z,91.04
2017-09-05T22:58:09.218Z,91.06
2017-09-05T23:00:36.739Z,91.27
2017-09-05T23:03:04.265Z,90.61
2017-09-05T23:05:31.826Z,91.37
2017-09-05T23:07:59.384Z,92.61
2017-09-05T23:10:26.900Z,92.59
2017-09-05T23:12:54.416Z,92.65
2017-09-05T23:15:21.940Z,93.49
2017-09-05T23:17:49.457Z,92.95
2017-09-05T23:20:16.996Z,93.00
2017-09-05T23:22:44.526Z,93.51
2017-09-05T23:25:12.042Z,93.98
2017-09-05T23:27:39.553Z,94.29
2017-09-05T23:30:07.087Z,94.47
2017-09-05T23:32:34.602Z,94.27
2017-09-05T23:35:02.113Z,94.00
2017-09-05T23:37:29.668Z,92.82
2017-09-05T23:39:57.165Z,92.21
2017-09-05T23:42:24.686Z,92.79
2017-09-05T23:44:52.188Z,91.82
2017-09-05T23:47:19.698Z,91.70
2017-09-05T23:49:47.243Z,90.07
2017-09-05T23:52:14.762Z,88.91
2017-09-05T23:54:42.287Z,90.31
2017-09-05T23:57:09.784Z,91.00
2017-09-05T23:59:37.378Z,90.55
